createdAt,value
2022-10-26T00:01:07.722Z,86.94
2022-10-26T00:03:35.240Z,86.55
2022-10-26T00:06:10.093Z,86.56
2022-10-26T00:08:36.028Z,86.25
2022-10-26T00:11:02.128Z,86.01
2022-10-26T00:13:27.909Z,86.08
2022-10-26T00:15:53.988Z,86.12
2022-10-26T00:18:19.765Z,86.08
2022-10-26T00:20:45.551Z,85.67
2022-10-26T00:23:11.207Z,85.97
2022-10-26T00:25:37.094Z,86.12
2022-10-26T00:28:02.960Z,85.67
2022-10-26T00:30:28.739Z,85.79
2022-10-26T00:32:54.403Z,86.86
2022-10-26T00:35:24.401Z,86.65
2022-10-26T00:38:05.686Z,86.76
2022-10-26T00:40:31.709Z,86.68
2022-10-26T00:42:57.637Z,87.57
2022-10-26T00:45:30.112Z,86.92
2022-10-26T00:47:57.783Z,86.71
2022-10-26T00:50:36.072Z,86.70
2022-10-26T00:53:04.824Z,86.49
2022-10-26T00:55:34.845Z,86.17
2022-10-26T00:58:03.211Z,85.71
2022-10-26T01:00:29.468Z,86.29
2022-10-26T01:02:57.225Z,85.58
2022-10-26T01:05:23.430Z,85.19
2022-10-26T01:07:51.132Z,85.27
2022-10-26T01:10:18.096Z,84.96
2022-10-26T01:12:44.568Z,84.58
2022-10-26T01:15:11.237Z,84.63
2022-10-26T01:17:52.784Z,85.01
2022-10-26T01:20:46.265Z,84.70
2022-10-26T01:23:29.584Z,84.86
2022-10-26T01:26:01.097Z,84.91
2022-10-26T01:28:57.777Z,83.75
2022-10-26T01:31:30.559Z,84.05
2022-10-26T01:34:09.076Z,83.73
2022-10-26T01:36:54.120Z,84.22
2022-10-26T01:39:38.575Z,83.62
2022-10-26T01:42:07.446Z,84.44
2022-10-26T01:44:41.143Z,84.09
2022-10-26T01:47:09.945Z,83.35
2022-10-26T01:49:39.798Z,83.99
2022-10-26T01:52:05.790Z,83.10
2022-10-26T01:57:07.622Z,83.25
2022-10-26T01:59:54.323Z,83.44
2022-10-26T02:02:38.274Z,83.31
2022-10-26T02:05:27.413Z,83.03
2022-10-26T02:08:13.808Z,82.27
2022-10-26T02:10:48.880Z,82.99
2022-10-26T02:13:25.552Z,83.12
2022-10-26T02:15:55.904Z,83.23
2022-10-26T02:18:29.270Z,83.16
2022-10-26T02:21:00.549Z,83.13
2022-10-26T02:23:28.272Z,83.42
2022-10-26T02:25:58.400Z,82.64
2022-10-26T02:28:30.168Z,83.17
2022-10-26T02:30:58.690Z,83.98
2022-10-26T02:33:28.368Z,84.62
2022-10-26T02:35:57.987Z,83.56
2022-10-26T02:38:24.503Z,84.13
2022-10-26T02:40:51.506Z,84.06
2022-10-26T02:43:21.259Z,83.93
2022-10-26T02:45:52.160Z,83.59
2022-10-26T02:48:18.418Z,84.13
2022-10-26T02:51:02.927Z,84.08
2022-10-26T02:53:45.240Z,83.39
2022-10-26T02:56:17.727Z,83.75
2022-10-26T02:58:48.793Z,84.41
2022-10-26T03:01:14.897Z,84.22
2022-10-26T03:03:40.634Z,83.79
2022-10-26T03:06:06.379Z,84.13
2022-10-26T03:08:32.148Z,83.51
2022-10-26T03:10:57.809Z,83.70
2022-10-26T03:13:23.584Z,84.11
2022-10-26T03:15:49.229Z,83.40
2022-10-26T03:18:14.954Z,83.84
2022-10-26T03:20:44.718Z,83.41
2022-10-26T03:23:11.822Z,83.55
2022-10-26T03:25:37.483Z,83.35
2022-10-26T03:28:04.469Z,83.70
2022-10-26T03:30:31.139Z,83.00
2022-10-26T03:32:56.826Z,83.04
2022-10-26T03:35:23.282Z,83.55
2022-10-26T03:37:49.523Z,83.44
2022-10-26T03:40:15.748Z,84.10
2022-10-26T03:42:41.680Z,83.71
2022-10-26T03:45:08.567Z,84.11
2022-10-26T03:47:34.374Z,83.90
2022-10-26T03:50:00.131Z,83.89
2022-10-26T03:52:25.864Z,83.27
2022-10-26T03:54:51.626Z,83.71
2022-10-26T03:57:17.720Z,83.62
2022-10-26T03:59:43.435Z,83.32
2022-10-26T04:02:09.154Z,83.87
2022-10-26T04:04:34.917Z,83.90
2022-10-26T04:07:00.742Z,84.26
2022-10-26T04:09:26.682Z,83.93
2022-10-26T04:11:52.347Z,84.13
2022-10-26T04:14:18.105Z,84.72
2022-10-26T04:16:43.762Z,84.01
2022-10-26T04:19:09.528Z,83.89
2022-10-26T04:21:35.335Z,84.05
2022-10-26T04:24:01.470Z,83.25
2022-10-26T04:26:27.620Z,83.31
2022-10-26T04:28:53.320Z,83.19
2022-10-26T04:31:19.324Z,83.29
2022-10-26T04:33:45.080Z,83.30
2022-10-26T04:36:10.857Z,84.45
2022-10-26T04:38:36.639Z,83.89
2022-10-26T04:41:02.459Z,83.49
2022-10-26T04:43:28.112Z,84.07
2022-10-26T04:45:57.680Z,83.39
2022-10-26T04:50:50.649Z,83.59
2022-10-26T04:53:16.388Z,83.67
2022-10-26T04:55:42.043Z,84.04
2022-10-26T04:58:07.712Z,84.07
2022-10-26T05:00:34.456Z,83.47
2022-10-26T05:03:01.920Z,83.69
2022-10-26T05:05:27.936Z,84.83
2022-10-26T05:07:55.451Z,84.02
2022-10-26T05:10:21.117Z,85.50
2022-10-26T05:12:53.589Z,86.02
2022-10-26T05:15:19.610Z,85.22
2022-10-26T05:17:45.427Z,85.52
2022-10-26T05:20:13.097Z,84.50
2022-10-26T05:22:39.881Z,85.10
2022-10-26T05:25:05.969Z,84.03
2022-10-26T05:27:31.682Z,84.40
2022-10-26T05:29:57.377Z,84.67
2022-10-26T05:32:23.144Z,84.04
2022-10-26T05:34:49.124Z,84.14
2022-10-26T05:37:14.841Z,84.05
2022-10-26T05:39:40.528Z,83.87
2022-10-26T05:42:06.169Z,83.60
2022-10-26T05:44:31.937Z,83.98
2022-10-26T05:46:57.632Z,84.32
2022-10-26T05:49:23.313Z,83.94
2022-10-26T05:51:49.098Z,84.52
2022-10-26T05:54:14.853Z,84.00
2022-10-26T05:56:41.053Z,83.88
2022-10-26T05:59:15.376Z,84.19
2022-10-26T06:01:56.685Z,84.97
2022-10-26T06:04:42.419Z,84.60
2022-10-26T06:07:11.875Z,85.66
2022-10-26T06:09:39.063Z,84.67
2022-10-26T06:12:06.633Z,84.96
2022-10-26T06:14:33.414Z,84.63
2022-10-26T06:17:14.116Z,85.24
2022-10-26T06:20:24.417Z,86.26
2022-10-26T06:23:15.160Z,85.44
2022-10-26T06:25:57.298Z,85.02
2022-10-26T06:28:47.433Z,86.03
2022-10-26T06:31:16.858Z,86.94
2022-10-26T06:33:42.688Z,86.35
2022-10-26T06:36:16.594Z,86.21
2022-10-26T06:38:44.033Z,85.74
2022-10-26T06:41:11.463Z,86.25
2022-10-26T06:43:37.466Z,85.57
2022-10-26T06:46:22.005Z,86.16
2022-10-26T06:48:59.413Z,85.29
2022-10-26T06:51:28.461Z,84.90
2022-10-26T06:54:39.177Z,84.97
2022-10-26T06:57:09.715Z,85.24
2022-10-26T06:59:43.698Z,85.36
2022-10-26T07:02:11.283Z,85.51
2022-10-26T07:04:37.164Z,85.79
2022-10-26T07:07:03.441Z,85.75
2022-10-26T07:09:29.549Z,84.96
2022-10-26T07:11:55.355Z,84.76
2022-10-26T07:14:21.308Z,84.44
2022-10-26T07:16:46.981Z,85.06
2022-10-26T07:19:15.782Z,84.61
2022-10-26T07:21:41.484Z,84.32
2022-10-26T07:24:07.487Z,84.25
2022-10-26T07:26:33.173Z,84.37
2022-10-26T07:28:58.847Z,84.01
2022-10-26T07:31:25.587Z,83.63
2022-10-26T07:33:53.545Z,83.36
2022-10-26T07:36:19.379Z,83.08
2022-10-26T07:38:45.155Z,83.48
2022-10-26T07:41:10.920Z,83.25
2022-10-26T07:43:36.599Z,82.97
2022-10-26T07:46:03.238Z,82.95
2022-10-26T07:48:29.058Z,82.82
2022-10-26T07:50:54.725Z,82.89
2022-10-26T07:53:23.962Z,82.84
2022-10-26T07:55:54.469Z,82.59
2022-10-26T07:58:23.005Z,82.48
2022-10-26T08:00:49.886Z,82.71
2022-10-26T08:03:16.739Z,82.53
2022-10-26T08:05:42.402Z,82.39
2022-10-26T08:08:08.186Z,82.31
2022-10-26T08:10:33.869Z,82.10
2022-10-26T08:12:59.560Z,81.89
2022-10-26T08:15:25.343Z,80.99
2022-10-26T08:17:51.326Z,81.23
2022-10-26T08:20:17.519Z,81.46
2022-10-26T08:22:43.320Z,81.72
2022-10-26T08:25:09.048Z,81.37
2022-10-26T08:27:34.717Z,81.42
2022-10-26T08:30:00.684Z,81.17
2022-10-26T08:32:26.448Z,80.92
2022-10-26T08:34:52.137Z,80.72
2022-10-26T08:37:17.809Z,80.72
2022-10-26T08:39:43.595Z,80.50
2022-10-26T08:42:36.642Z,79.19
2022-10-26T08:45:18.780Z,78.49
2022-10-26T08:47:49.952Z,78.59
2022-10-26T08:50:26.798Z,77.67
2022-10-26T08:53:03.087Z,77.75
2022-10-26T08:55:44.968Z,78.57
2022-10-26T08:58:16.733Z,77.39
2022-10-26T09:00:46.437Z,77.66
2022-10-26T09:03:14.354Z,77.54
2022-10-26T09:06:02.784Z,76.80
2022-10-26T09:08:36.056Z,76.89
2022-10-26T09:11:20.579Z,77.32
2022-10-26T09:14:09.962Z,76.90
2022-10-26T09:16:55.343Z,76.08
2022-10-26T09:19:54.998Z,75.73
2022-10-26T09:23:05.018Z,76.04
2022-10-26T09:25:38.715Z,75.90
2022-10-26T09:28:07.689Z,76.72
2022-10-26T09:30:35.075Z,76.42
2022-10-26T09:33:25.152Z,75.08
2022-10-26T09:36:09.165Z,75.85
2022-10-26T09:38:43.637Z,75.17
2022-10-26T09:41:31.740Z,73.98
2022-10-26T09:44:06.889Z,75.28
2022-10-26T09:46:52.823Z,73.60
2022-10-26T09:49:22.504Z,74.12
2022-10-26T09:51:48.252Z,73.93
2022-10-26T09:54:16.784Z,73.69
2022-10-26T09:56:51.332Z,73.05
2022-10-26T09:59:21.036Z,73.72
2022-10-26T10:01:46.825Z,73.35
2022-10-26T10:04:12.626Z,73.43
2022-10-26T10:06:39.464Z,73.80
2022-10-26T10:09:10.988Z,71.62
2022-10-26T10:11:58.670Z,70.61
2022-10-26T10:14:35.987Z,71.23
2022-10-26T10:17:10.161Z,70.11
2022-10-26T10:19:37.674Z,69.81
2022-10-26T10:22:18.695Z,67.00
2022-10-26T10:24:57.204Z,66.84
2022-10-26T10:27:24.086Z,68.00
2022-10-26T10:29:57.310Z,63.45
2022-10-26T10:32:34.318Z,65.28
2022-10-26T10:35:22.794Z,64.89
2022-10-26T10:37:49.909Z,64.90
2022-10-26T10:40:25.355Z,65.97
2022-10-26T10:42:54.449Z,66.66
2022-10-26T10:45:26.895Z,66.54
2022-10-26T10:48:14.286Z,66.34
2022-10-26T10:51:11.673Z,66.28
2022-10-26T10:53:52.564Z,66.94
2022-10-26T10:56:27.287Z,68.05
2022-10-26T10:59:00.804Z,67.93
2022-10-26T11:01:31.726Z,67.54
2022-10-26T11:04:33.477Z,66.76
2022-10-26T11:07:02.584Z,67.82
2022-10-26T11:09:32.628Z,67.06
2022-10-26T11:12:03.053Z,67.19
2022-10-26T11:14:47.632Z,66.96
2022-10-26T11:17:20.564Z,67.11
2022-10-26T11:20:14.869Z,67.19
2022-10-26T11:22:58.656Z,67.01
2022-10-26T11:25:34.450Z,66.86
2022-10-26T11:28:34.739Z,67.22
2022-10-26T11:31:06.426Z,67.15
2022-10-26T11:33:39.736Z,67.71
2022-10-26T11:36:11.510Z,68.59
2022-10-26T11:39:08.145Z,67.66
2022-10-26T11:41:47.084Z,68.51
2022-10-26T11:44:28.649Z,67.95
2022-10-26T11:47:00.298Z,68.73
2022-10-26T11:49:38.804Z,68.90
2022-10-26T11:52:17.258Z,68.97
2022-10-26T11:54:52.692Z,68.10
2022-10-26T11:57:20.405Z,67.91
2022-10-26T11:59:54.056Z,67.10
2022-10-26T12:02:22.821Z,67.39
2022-10-26T12:05:01.977Z,67.01
2022-10-26T12:07:33.932Z,67.20
2022-10-26T12:10:01.592Z,67.57
2022-10-26T12:12:42.735Z,67.68
2022-10-26T12:16:01.765Z,66.68
2022-10-26T12:19:01.547Z,66.37
2022-10-26T12:21:29.842Z,67.37
2022-10-26T12:23:59.358Z,66.04
2022-10-26T12:26:25.161Z,66.80
2022-10-26T12:29:03.298Z,66.43
2022-10-26T12:31:31.934Z,67.07
2022-10-26T12:33:59.219Z,67.05
2022-10-26T12:36:47.973Z,66.64
2022-10-26T12:39:36.321Z,67.31
2022-10-26T12:42:05.025Z,67.48
2022-10-26T12:44:47.562Z,67.69
2022-10-26T12:47:29.007Z,67.69
2022-10-26T12:50:19.214Z,67.58
2022-10-26T12:52:52.505Z,67.77
2022-10-26T12:55:49.963Z,67.52
2022-10-26T12:58:31.834Z,67.37
2022-10-26T13:00:57.769Z,67.48
2022-10-26T13:03:38.943Z,66.81
2022-10-26T13:06:10.665Z,67.82
2022-10-26T13:08:48.130Z,67.29
2022-10-26T13:11:31.277Z,67.53
2022-10-26T13:14:01.322Z,66.75
2022-10-26T13:16:28.280Z,67.41
2022-10-26T13:18:54.589Z,67.36
2022-10-26T13:21:22.879Z,66.93
2022-10-26T13:23:55.984Z,66.55
2022-10-26T13:26:24.222Z,67.28
2022-10-26T13:29:09.826Z,67.39
2022-10-26T13:31:36.948Z,67.24
2022-10-26T13:34:04.832Z,66.36
2022-10-26T13:36:36.232Z,67.21
2022-10-26T13:39:09.504Z,67.53
2022-10-26T13:41:45.374Z,67.88
2022-10-26T13:44:21.351Z,68.25
2022-10-26T13:46:56.017Z,68.61
2022-10-26T13:49:29.357Z,68.59
2022-10-26T13:51:55.669Z,69.02
2022-10-26T13:54:33.383Z,69.13
2022-10-26T13:57:12.734Z,69.05
2022-10-26T13:59:43.229Z,69.30
2022-10-26T14:02:23.966Z,68.80
2022-10-26T14:05:01.315Z,68.64
2022-10-26T14:07:56.981Z,69.24
2022-10-26T14:10:27.466Z,69.36
2022-10-26T14:12:53.778Z,69.42
2022-10-26T14:15:26.349Z,69.56
2022-10-26T14:17:54.413Z,69.50
2022-10-26T14:20:22.995Z,69.76
2022-10-26T14:22:49.178Z,69.72
2022-10-26T14:25:26.630Z,69.79
2022-10-26T14:28:04.045Z,69.71
2022-10-26T14:30:31.932Z,69.92
2022-10-26T14:32:58.269Z,69.87
2022-10-26T14:35:32.228Z,69.95
2022-10-26T14:38:14.901Z,70.04
2022-10-26T14:40:40.770Z,69.97
2022-10-26T14:43:11.271Z,70.11
2022-10-26T14:45:53.823Z,70.06
2022-10-26T14:48:31.817Z,70.04
2022-10-26T14:51:18.454Z,70.21
2022-10-26T14:53:50.067Z,70.30
2022-10-26T14:56:23.267Z,70.30
2022-10-26T14:58:50.362Z,70.62
2022-10-26T15:01:24.932Z,70.38
2022-10-26T15:03:54.813Z,70.73
2022-10-26T15:06:29.557Z,70.77
2022-10-26T15:08:57.589Z,70.98
2022-10-26T15:11:24.029Z,70.95
2022-10-26T15:13:50.192Z,71.34
2022-10-26T15:16:25.037Z,71.78
2022-10-26T15:18:55.946Z,72.37
2022-10-26T15:21:27.385Z,72.10
2022-10-26T15:23:55.269Z,71.77
2022-10-26T15:26:21.047Z,72.24
2022-10-26T15:28:49.974Z,72.40
2022-10-26T15:31:18.684Z,72.59
2022-10-26T15:33:50.760Z,72.83
2022-10-26T15:36:27.559Z,72.77
2022-10-26T15:38:54.901Z,72.88
2022-10-26T15:41:25.831Z,73.52
2022-10-26T15:43:55.946Z,73.46
2022-10-26T15:46:22.582Z,73.10
2022-10-26T15:48:59.881Z,73.96
2022-10-26T15:51:25.811Z,73.52
2022-10-26T15:53:51.779Z,73.51
2022-10-26T15:56:23.243Z,73.81
2022-10-26T15:58:49.323Z,73.75
2022-10-26T16:01:20.974Z,74.82
2022-10-26T16:03:47.208Z,74.71
2022-10-26T16:06:28.525Z,74.90
2022-10-26T16:08:57.325Z,74.42
2022-10-26T16:16:17.582Z,74.96
2022-10-26T16:18:43.654Z,75.68
2022-10-26T16:21:13.622Z,75.84
2022-10-26T16:23:39.839Z,75.37
2022-10-26T16:26:05.981Z,75.76
2022-10-26T16:28:32.024Z,76.23
2022-10-26T16:30:59.233Z,76.42
2022-10-26T16:33:24.850Z,76.97
2022-10-26T16:35:57.737Z,76.52
2022-10-26T16:38:24.195Z,76.64
2022-10-26T16:40:49.897Z,76.75
2022-10-26T16:43:15.716Z,76.28
2022-10-26T16:45:41.585Z,76.45
2022-10-26T16:48:14.745Z,77.18
2022-10-26T16:50:40.598Z,77.25
2022-10-26T16:53:06.286Z,76.95
2022-10-26T16:55:32.105Z,77.26
2022-10-26T16:57:58.087Z,77.25
2022-10-26T17:00:23.902Z,77.56
2022-10-26T17:02:49.616Z,77.67
2022-10-26T17:05:15.364Z,77.62
2022-10-26T17:07:41.066Z,77.63
2022-10-26T17:10:06.990Z,77.26
2022-10-26T17:12:32.720Z,77.71
2022-10-26T17:14:59.658Z,77.38
2022-10-26T17:17:25.387Z,77.71
2022-10-26T17:19:51.337Z,77.55
2022-10-26T17:22:17.080Z,77.73
2022-10-26T17:24:42.792Z,77.92
2022-10-26T17:27:08.487Z,77.74
2022-10-26T17:29:34.175Z,78.27
2022-10-26T17:31:59.925Z,78.47
2022-10-26T17:34:25.721Z,78.76
2022-10-26T17:36:51.391Z,78.49
2022-10-26T17:39:18.505Z,79.45
2022-10-26T17:41:44.332Z,79.24
2022-10-26T17:44:10.151Z,78.96
2022-10-26T17:46:35.889Z,79.57
2022-10-26T17:49:01.793Z,79.65
2022-10-26T17:51:29.269Z,80.11
2022-10-26T17:53:56.199Z,79.73
2022-10-26T17:56:24.783Z,80.11
2022-10-26T17:59:01.407Z,80.66
2022-10-26T18:01:28.174Z,80.45
2022-10-26T18:03:54.590Z,80.59
2022-10-26T18:06:20.870Z,80.55
2022-10-26T18:08:47.747Z,80.54
2022-10-26T18:11:23.850Z,80.91
2022-10-26T18:13:53.649Z,81.01
2022-10-26T18:16:23.719Z,81.08
2022-10-26T18:18:59.532Z,81.85
2022-10-26T18:21:26.644Z,81.45
2022-10-26T18:23:52.838Z,81.61
2022-10-26T18:26:20.490Z,81.71
2022-10-26T18:28:46.807Z,81.94
2022-10-26T18:31:15.847Z,81.93
2022-10-26T18:33:42.042Z,81.81
2022-10-26T18:36:14.365Z,81.90
2022-10-26T18:38:40.798Z,81.90
2022-10-26T18:41:09.479Z,81.92
2022-10-26T18:43:42.385Z,82.35
2022-10-26T18:46:11.033Z,81.81
2022-10-26T18:48:37.184Z,82.05
2022-10-26T18:51:14.515Z,82.53
2022-10-26T18:53:42.053Z,82.28
2022-10-26T18:56:11.515Z,82.27
2022-10-26T18:58:39.529Z,82.39
2022-10-26T19:01:17.012Z,83.07
2022-10-26T19:03:43.587Z,82.18
2022-10-26T19:06:13.546Z,82.38
2022-10-26T19:08:39.301Z,82.02
2022-10-26T19:11:07.127Z,81.93
2022-10-26T19:13:33.193Z,82.33
2022-10-26T19:16:12.698Z,82.84
2022-10-26T19:18:47.767Z,82.62
2022-10-26T19:21:17.274Z,82.91
2022-10-26T19:23:45.061Z,83.06
2022-10-26T19:26:12.696Z,83.26
2022-10-26T19:28:38.761Z,83.09
2022-10-26T19:31:10.574Z,83.12
2022-10-26T19:33:36.670Z,83.88
2022-10-26T19:36:08.063Z,85.01
2022-10-26T19:38:33.801Z,84.43
2022-10-26T19:41:05.052Z,84.28
2022-10-26T19:43:33.904Z,84.28
2022-10-26T19:46:06.887Z,84.76
2022-10-26T19:48:32.596Z,85.00
2022-10-26T19:50:58.396Z,84.85
2022-10-26T19:53:24.496Z,84.45
2022-10-26T19:55:56.589Z,84.68
2022-10-26T19:58:23.666Z,84.11
2022-10-26T20:00:50.480Z,84.36
2022-10-26T20:03:16.483Z,84.26
2022-10-26T20:05:42.760Z,84.21
2022-10-26T20:08:09.958Z,84.35
2022-10-26T20:10:43.311Z,84.22
2022-10-26T20:13:13.310Z,84.46
2022-10-26T20:15:40.368Z,84.47
2022-10-26T20:18:06.739Z,84.38
2022-10-26T20:20:37.215Z,84.52
2022-10-26T20:23:04.590Z,84.65
2022-10-26T20:25:30.255Z,85.13
2022-10-26T20:27:56.060Z,84.09
2022-10-26T20:30:21.716Z,84.26
2022-10-26T20:32:47.533Z,84.26
2022-10-26T20:35:13.240Z,84.78
2022-10-26T20:37:39.123Z,84.81
2022-10-26T20:40:05.835Z,85.02
2022-10-26T20:42:31.683Z,85.29
2022-10-26T20:45:30.470Z,85.89
2022-10-26T20:47:57.490Z,84.85
2022-10-26T20:50:25.398Z,85.11
2022-10-26T20:53:09.566Z,84.96
2022-10-26T20:55:53.423Z,85.30
2022-10-26T20:58:43.047Z,85.28
2022-10-26T21:01:26.855Z,85.00
2022-10-26T21:03:58.167Z,85.86
2022-10-26T21:06:24.535Z,85.67
2022-10-26T21:08:52.035Z,85.22
2022-10-26T21:11:19.470Z,85.02
2022-10-26T21:13:45.753Z,85.31
2022-10-26T21:16:11.665Z,84.97
2022-10-26T21:18:37.798Z,85.01
2022-10-26T21:21:03.698Z,85.23
2022-10-26T21:23:34.387Z,85.25
2022-10-26T21:26:00.846Z,85.46
2022-10-26T21:28:32.998Z,85.17
2022-10-26T21:31:06.243Z,85.16
2022-10-26T21:33:32.454Z,85.23
2022-10-26T21:35:59.696Z,85.11
2022-10-26T21:38:29.747Z,84.51
2022-10-26T21:41:06.796Z,84.64
2022-10-26T21:43:33.711Z,84.34
2022-10-26T21:46:03.367Z,84.41
2022-10-26T21:48:31.020Z,84.38
2022-10-26T21:50:56.980Z,85.07
2022-10-26T21:53:22.998Z,84.83
2022-10-26T21:55:48.756Z,84.84
2022-10-26T21:58:17.297Z,85.45
2022-10-26T22:00:43.194Z,85.78
2022-10-26T22:03:08.878Z,85.53
2022-10-26T22:05:34.820Z,85.61
2022-10-26T22:08:00.527Z,85.10
2022-10-26T22:10:26.200Z,85.37
2022-10-26T22:12:52.013Z,85.51
2022-10-26T22:15:17.684Z,85.56
2022-10-26T22:17:43.600Z,85.52
2022-10-26T22:20:10.942Z,85.73
2022-10-26T22:22:37.205Z,85.97
2022-10-26T22:25:05.003Z,86.73
2022-10-26T22:27:30.882Z,87.12
2022-10-26T22:29:56.547Z,87.26
2022-10-26T22:32:22.552Z,87.99
2022-10-26T22:34:50.657Z,87.83
2022-10-26T22:37:16.501Z,87.45
2022-10-26T22:39:42.641Z,88.44
2022-10-26T22:42:08.662Z,87.73
2022-10-26T22:44:34.630Z,88.51
2022-10-26T22:47:00.638Z,88.27
2022-10-26T22:49:26.375Z,88.35
2022-10-26T22:51:52.156Z,87.38
2022-10-26T22:54:19.123Z,87.38
2022-10-26T22:56:44.851Z,87.10
2022-10-26T22:59:10.784Z,87.58
2022-10-26T23:01:39.085Z,87.10
2022-10-26T23:04:05.139Z,87.69
2022-10-26T23:06:32.234Z,86.50
2022-10-26T23:08:58.435Z,86.77
2022-10-26T23:11:26.483Z,87.67
2022-10-26T23:13:57.583Z,87.00
2022-10-26T23:16:24.121Z,87.01
2022-10-26T23:18:50.120Z,87.33
2022-10-26T23:21:16.582Z,86.86
2022-10-26T23:23:42.638Z,86.78
2022-10-26T23:26:14.031Z,86.64
2022-10-26T23:28:41.152Z,87.33
2022-10-26T23:31:07.679Z,87.70
2022-10-26T23:33:33.784Z,87.17
2022-10-26T23:36:00.735Z,86.89
2022-10-26T23:38:26.727Z,87.25
2022-10-26T23:40:54.980Z,87.11
2022-10-26T23:43:21.635Z,86.98
2022-10-26T23:45:48.041Z,87.06
2022-10-26T23:48:14.671Z,86.76
2022-10-26T23:50:45.323Z,86.56
2022-10-26T23:53:12.067Z,86.98
2022-10-26T23:55:38.280Z,86.92
2022-10-26T23:58:04.734Z,86.93
